Time;durP1;ratioP1;P1;durP2;ratioP2;P2;SDS_P1;SDS_P2;PMS_P1;PMS_P2;Temp;Humidity;BMP_temperature;BMP_pressure;BME280_temperature;BME280_humidity;BME280_pressure;Samples;Min_cycle;Max_cycle;Signal;HPM_P1;HPM_P2
2022/12/01 00:00:39;;;;;;;64.35;28.98;;;;;;;3.56;100.00;102890.72;5008139;28;20053;-62
2022/12/01 00:03:05;;;;;;;62.85;26.27;;;;;;;3.47;100.00;102886.13;5008347;28;20377;-61
2022/12/01 00:05:31;;;;;;;66.90;27.80;;;;;;;3.40;100.00;102887.66;5007767;28;20072;-62
2022/12/01 00:07:58;;;;;;;51.25;21.60;;;;;;;3.26;100.00;102887.25;5007454;28;20101;-62
2022/12/01 00:10:26;;;;;;;40.05;18.00;;;;;;;3.19;100.00;102880.97;5007852;28;20042;-64
2022/12/01 00:12:55;;;;;;;37.47;17.48;;;;;;;3.10;100.00;102883.31;5007899;28;20384;-66
2022/12/01 00:15:22;;;;;;;31.83;16.30;;;;;;;3.06;100.00;102884.94;4999686;28;20023;-63
2022/12/01 00:17:48;;;;;;;25.77;14.85;;;;;;;2.97;100.00;102882.94;4996115;28;20405;-63
2022/12/01 00:20:14;;;;;;;29.90;15.43;;;;;;;2.89;100.00;102881.81;5007887;28;20026;-63
2022/12/01 00:22:44;;;;;;;30.90;16.20;;;;;;;2.90;100.00;102883.59;5006307;28;20033;-60
2022/12/01 00:25:09;;;;;;;;;;;;;;;2.86;100.00;102890.41;5007798;28;20026;-59
2022/12/01 00:27:34;;;;;;;27.70;14.57;;;;;;;2.82;100.00;102885.94;5007600;28;19924;-61
2022/12/01 00:30:00;;;;;;;40.88;17.77;;;;;;;2.79;100.00;102891.03;5006944;28;20030;-62
2022/12/01 00:32:25;;;;;;;31.05;16.20;;;;;;;2.77;100.00;102891.00;4990678;28;20027;-63
2022/12/01 00:34:50;;;;;;;47.80;20.63;;;;;;;2.80;100.00;102897.16;5007670;28;20034;-60
2022/12/01 00:37:15;;;;;;;61.85;24.92;;;;;;;2.94;100.00;102897.56;5003915;28;20113;-61
2022/12/01 00:39:41;;;;;;;69.35;25.70;;;;;;;3.00;100.00;102888.25;4988819;28;20113;-65
2022/12/01 00:42:06;;;;;;;63.35;24.95;;;;;;;3.06;100.00;102892.75;4987900;28;20038;-62
2022/12/01 00:44:31;;;;;;;67.40;25.10;;;;;;;3.12;100.00;102884.22;4987442;28;20026;-61
2022/12/01 00:46:57;;;;;;;60.80;23.85;;;;;;;3.10;100.00;102888.53;4988764;28;20066;-62
2022/12/01 00:49:22;;;;;;;64.63;23.75;;;;;;;3.13;100.00;102884.28;4988268;28;20038;-62
2022/12/01 00:51:47;;;;;;;67.65;26.30;;;;;;;3.17;100.00;102893.09;4988590;28;20520;-63
2022/12/01 00:54:13;;;;;;;75.57;29.35;;;;;;;3.31;100.00;102885.66;4988713;28;20090;-62
2022/12/01 00:56:38;;;;;;;79.82;31.30;;;;;;;3.51;100.00;102891.47;4988246;28;20493;-61
2022/12/01 00:59:03;;;;;;;110.60;35.67;;;;;;;3.69;100.00;102885.00;4990520;28;20022;-62
2022/12/01 01:01:29;;;;;;;104.95;35.90;;;;;;;3.87;100.00;102891.56;4991496;28;20050;-61
2022/12/01 01:03:54;;;;;;;108.00;37.50;;;;;;;4.06;100.00;102887.72;4991575;28;20030;-61
2022/12/01 01:06:19;;;;;;;112.32;39.35;;;;;;;4.18;100.00;102892.38;4995035;28;20072;-60
2022/12/01 01:08:45;;;;;;;115.32;37.92;;;;;;;4.29;100.00;102896.16;5011615;28;20350;-61
2022/12/01 01:11:11;;;;;;;116.57;39.45;;;;;;;4.41;100.00;102899.94;5009877;28;20033;-59
2022/12/01 01:13:36;;;;;;;115.85;38.97;;;;;;;4.45;100.00;102893.94;5009008;28;20037;-60
2022/12/01 01:16:16;;;;;;;117.10;39.97;;;;;;;4.51;100.00;102899.31;5010349;28;20022;-59
2022/12/01 01:18:42;;;;;;;120.88;40.40;;;;;;;4.65;100.00;102893.53;5010550;28;20101;-62
2022/12/01 01:21:11;;;;;;;130.80;42.13;;;;;;;4.68;100.00;102893.63;5010647;28;20042;-62
2022/12/01 01:23:36;;;;;;;108.57;39.50;;;;;;;4.79;100.00;102902.59;5010250;28;20049;-64
2022/12/01 01:26:25;;;;;;;128.65;41.92;;;;;;;4.84;100.00;102904.44;4991038;28;20477;-62
2022/12/01 01:28:51;;;;;;;;;;;;;;;4.82;100.00;102900.91;4990293;28;20018;-61
2022/12/01 01:31:20;;;;;;;108.38;35.75;;;;;;;4.86;100.00;102908.84;4991314;28;19921;-64
2022/12/01 01:33:45;;;;;;;111.97;38.67;;;;;;;4.84;100.00;102905.31;4992320;28;20038;-61
2022/12/01 01:36:11;;;;;;;120.00;39.72;;;;;;;4.84;100.00;102904.44;5002009;28;20026;-60
2022/12/01 01:38:37;;;;;;;124.65;42.35;;;;;;;4.82;100.00;102906.13;5009961;28;20110;-60
2022/12/01 01:41:03;;;;;;;112.80;40.15;;;;;;;4.90;100.00;102912.41;5009144;28;20318;-63
2022/12/01 01:43:49;;;;;;;124.22;42.05;;;;;;;4.92;100.00;102918.56;5009689;28;20022;-60
2022/12/01 01:46:17;;;;;;;129.23;40.72;;;;;;;4.92;100.00;102909.00;5010199;28;20428;-62
2022/12/01 01:48:47;;;;;;;128.32;43.28;;;;;;;4.96;100.00;102915.16;5010387;28;20033;-62
2022/12/01 01:51:13;;;;;;;123.10;40.63;;;;;;;4.99;100.00;102911.72;5009672;28;20034;-62
2022/12/01 01:53:40;;;;;;;131.20;43.90;;;;;;;5.02;100.00;102915.31;4992086;28;20021;-63
2022/12/01 01:56:07;;;;;;;130.23;44.47;;;;;;;5.06;100.00;102919.75;5009718;28;20438;-58
2022/12/01 01:58:32;;;;;;;131.98;43.65;;;;;;;5.12;100.00;102916.38;5009680;28;20072;-61
2022/12/01 02:00:58;;;;;;;134.88;45.95;;;;;;;5.17;100.00;102919.09;4992206;28;20022;-63
2022/12/01 02:03:23;;;;;;;134.68;45.17;;;;;;;5.24;100.00;102910.56;5009933;28;20054;-64
2022/12/01 02:05:48;;;;;;;114.82;41.78;;;;;;;5.26;100.00;102911.47;4974013;28;20476;-62
2022/12/01 02:08:14;;;;;;;116.63;42.58;;;;;;;5.28;100.00;102912.41;4990546;28;20061;-62
2022/12/01 02:10:42;;;;;;;127.85;43.05;;;;;;;5.29;100.00;102918.50;4987023;28;20050;-62
2022/12/01 02:16:08;;;;;;;122.30;43.08;;;;;;;5.28;100.00;102903.66;5025499;26;20107;-61
2022/12/01 02:19:00;;;;;;;128.60;43.75;;;;;;;5.23;100.00;102900.94;5012240;28;20399;-62
2022/12/01 02:21:31;;;;;;;114.57;42.35;;;;;;;5.16;100.00;102906.91;5028807;28;20041;-63
2022/12/01 02:24:04;;;;;;;112.07;39.40;;;;;;;5.03;100.00;102900.53;5028884;28;20108;-60
2022/12/01 02:26:38;;;;;;;113.78;39.47;;;;;;;4.94;100.00;102906.44;5028707;28;20108;-60
2022/12/01 02:29:28;;;;;;;110.80;39.45;;;;;;;4.90;100.00;102904.56;5010294;28;20091;-63
2022/12/01 02:32:01;;;;;;;127.97;45.25;;;;;;;4.82;100.00;102900.91;5029418;28;20028;-62
2022/12/01 02:34:35;;;;;;;138.77;44.38;;;;;;;4.92;100.00;102897.66;5014264;28;20025;-61
2022/12/01 02:37:09;;;;;;;119.35;41.78;;;;;;;4.92;100.00;102890.72;5039596;28;20497;-62
2022/12/01 02:39:37;;;;;;;129.43;39.92;;;;;;;4.91;100.00;102903.75;5029828;28;20032;-61
2022/12/01 02:42:48;;;;;;;138.43;44.53;;;;;;;4.85;100.00;102893.13;5028416;28;20024;-63
2022/12/01 02:45:09;;;;;;;120.88;43.03;;;;;;;4.85;100.00;102894.00;5041346;28;20037;-62
2022/12/01 02:47:35;;;;;;;125.95;42.30;;;;;;;4.86;100.00;102898.41;5047819;28;20115;-59
2022/12/01 02:50:02;;;;;;;140.90;44.38;;;;;;;4.96;100.00;102896.00;5047536;28;20033;-60
2022/12/01 02:52:27;;;;;;;138.35;45.13;;;;;;;5.02;100.00;102890.91;5031069;28;20021;-62
2022/12/01 02:54:52;;;;;;;135.38;45.45;;;;;;;5.14;100.00;102901.63;5046705;28;20086;-62
2022/12/01 02:57:22;;;;;;;148.90;46.13;;;;;;;5.12;100.00;102895.47;5030301;28;20025;-61
2022/12/01 02:59:51;;;;;;;132.15;43.60;;;;;;;5.18;100.00;102903.47;5036518;28;20029;-58
2022/12/01 03:02:30;;;;;;;138.43;45.97;;;;;;;5.01;100.00;102895.25;4993537;28;20108;-61
2022/12/01 03:05:04;;;;;;;126.60;45.00;;;;;;;5.04;100.00;102897.94;5010381;28;20044;-62
2022/12/01 03:07:45;;;;;;;136.23;43.90;;;;;;;5.05;100.00;102889.25;5010659;28;20029;-60
2022/12/01 03:10:16;;;;;;;131.35;44.03;;;;;;;4.94;100.00;102895.97;5027945;28;20060;-59
2022/12/01 03:13:04;;;;;;;145.45;45.78;;;;;;;4.90;100.00;102892.41;5026978;28;20013;-63
2022/12/01 03:15:37;;;;;;;124.03;41.92;;;;;;;4.86;100.00;102894.91;5010582;28;20637;-62
2022/12/01 03:18:24;;;;;;;107.00;39.60;;;;;;;4.72;100.00;102898.06;5020667;28;20087;-61
2022/12/01 03:21:00;;;;;;;132.43;42.78;;;;;;;4.63;100.00;102890.00;5029011;28;20502;-61
2022/12/01 03:23:28;;;;;;;124.97;41.83;;;;;;;4.58;100.00;102891.63;5013224;28;20029;-60
2022/12/01 03:25:55;;;;;;;111.53;39.15;;;;;;;4.49;100.00;102887.94;5046579;28;20112;-60
2022/12/01 03:28:27;;;;;;;134.48;43.10;;;;;;;4.41;100.00;102897.31;5029120;28;20537;-61
2022/12/01 03:31:16;;;;;;;129.55;41.95;;;;;;;4.43;100.00;102882.59;4337646;23;22961;-61
2022/12/01 03:34:11;;;;;;;109.63;36.47;;;;;;;4.32;100.00;102894.47;4967833;28;20374;-61
2022/12/01 03:36:58;;;;;;;121.28;38.45;;;;;;;4.31;100.00;102893.59;4970979;28;20041;-61
2022/12/01 03:39:28;;;;;;;119.05;39.30;;;;;;;4.32;100.00;102894.47;4971099;28;20038;-61
2022/12/01 03:41:59;;;;;;;122.70;39.30;;;;;;;4.34;100.00;102896.28;4987676;28;20125;-61
2022/12/01 03:44:30;;;;;;;126.10;39.28;;;;;;;4.33;100.00;102897.13;4970420;28;20116;-62
2022/12/01 03:47:07;;;;;;;135.52;41.92;;;;;;;4.29;100.00;102892.66;4970256;28;20026;-60
2022/12/01 03:49:33;;;;;;;123.05;39.42;;;;;;;4.24;100.00;102892.53;4971023;28;20046;-60
2022/12/01 03:52:08;;;;;;;121.78;39.25;;;;;;;4.15;100.00;102895.81;4986885;28;20045;-61
2022/12/01 03:55:00;;;;;;;101.40;35.80;;;;;;;3.98;100.00;102891.88;4970736;28;20042;-61
2022/12/01 03:57:31;;;;;;;102.60;34.25;;;;;;;3.86;100.00;102895.03;4983034;28;20042;-61
2022/12/01 03:59:57;;;;;;;111.22;35.53;;;;;;;3.78;100.00;102890.50;4970376;28;20050;-60
2022/12/01 04:02:26;;;;;;;98.13;34.83;;;;;;;3.75;100.00;102890.41;4969246;28;20805;-63
2022/12/01 04:04:51;;;;;;;;;;;;;;;3.71;100.00;102891.16;4970969;28;20039;-60
2022/12/01 04:07:17;;;;;;;94.28;31.25;;;;;;;3.65;100.00;102891.84;4950212;28;19977;-61
2022/12/01 04:09:42;;;;;;;108.20;34.78;;;;;;;3.68;100.00;102898.91;4950302;28;20035;-60
2022/12/01 04:12:29;;;;;;;116.95;36.85;;;;;;;3.71;100.00;102896.38;4956952;28;20023;-61
2022/12/01 04:14:56;;;;;;;121.38;37.97;;;;;;;3.79;100.00;102904.38;4968645;28;20022;-61
2022/12/01 04:17:21;;;;;;;133.00;39.25;;;;;;;3.92;100.00;102908.25;4968363;28;20558;-61
2022/12/01 04:19:47;;;;;;;121.60;39.03;;;;;;;3.95;100.00;102905.72;4970193;28;20027;-62
2022/12/01 04:22:12;;;;;;;120.72;38.60;;;;;;;3.91;100.00;102903.84;4969439;28;20106;-61
2022/12/01 04:24:37;;;;;;;128.45;36.95;;;;;;;3.88;100.00;102908.97;4969439;28;20118;-63
2022/12/01 04:27:03;;;;;;;106.13;36.45;;;;;;;3.84;100.00;102901.91;4969001;28;20458;-61
2022/12/01 04:29:28;;;;;;;116.65;35.22;;;;;;;3.82;100.00;102904.47;4969737;28;20644;-61
2022/12/01 04:31:53;;;;;;;101.45;33.95;;;;;;;3.79;100.00;102905.28;4979909;28;20452;-61
2022/12/01 04:34:19;;;;;;;111.45;35.47;;;;;;;3.78;100.00;102903.53;5010248;28;20492;-61
2022/12/01 04:36:44;;;;;;;101.55;33.10;;;;;;;3.84;100.00;102907.13;5011949;28;20391;-63
2022/12/01 04:39:10;;;;;;;110.45;36.25;;;;;;;3.90;100.00;102902.09;5011078;28;20084;-62
2022/12/01 04:41:35;;;;;;;101.07;35.00;;;;;;;3.91;100.00;102901.25;5011631;28;20026;-61
2022/12/01 04:44:00;;;;;;;104.95;32.78;;;;;;;3.89;100.00;102902.94;5002178;28;20010;-59
2022/12/01 04:46:26;;;;;;;102.38;34.08;;;;;;;3.89;100.00;102900.31;4991802;28;20676;-60
2022/12/01 04:48:51;;;;;;;100.32;33.20;;;;;;;3.92;100.00;102906.50;4991907;28;20412;-63
2022/12/01 04:51:17;;;;;;;99.22;33.30;;;;;;;3.93;100.00;102904.78;4991903;28;20110;-61
2022/12/01 04:53:42;;;;;;;122.80;40.25;;;;;;;4.06;100.00;102907.72;4992406;28;20034;-61
2022/12/01 04:56:07;;;;;;;123.40;37.90;;;;;;;4.15;100.00;102903.63;4991547;28;20366;-60
2022/12/01 04:58:36;;;;;;;129.82;39.92;;;;;;;4.21;100.00;102905.50;5006236;28;20475;-60
2022/12/01 05:01:03;;;;;;;118.10;38.83;;;;;;;4.25;100.00;102904.75;4998680;28;20037;-61
2022/12/01 05:03:29;;;;;;;128.13;38.53;;;;;;;4.25;100.00;102909.97;4991159;28;20285;-60
2022/12/01 05:06:09;;;;;;;104.22;36.33;;;;;;;4.19;100.00;102904.59;4992311;28;20030;-60
2022/12/01 05:08:34;;;;;;;93.82;34.47;;;;;;;4.02;100.00;102902.44;4992397;28;20030;-62
2022/12/01 05:11:01;;;;;;;94.05;33.30;;;;;;;3.99;100.00;102896.22;4991841;28;20034;-60
2022/12/01 05:13:26;;;;;;;97.25;34.10;;;;;;;3.92;100.00;102905.63;4992627;28;20031;-63
2022/12/01 05:15:51;;;;;;;102.28;32.75;;;;;;;3.90;100.00;102902.09;4992358;28;20042;-62
2022/12/01 05:18:17;;;;;;;101.68;33.47;;;;;;;3.86;100.00;102903.75;4990388;28;20122;-61
2022/12/01 05:20:57;;;;;;;99.57;34.10;;;;;;;3.87;100.00;102912.44;4991930;28;20461;-61
2022/12/01 05:23:26;;;;;;;104.60;35.85;;;;;;;3.86;100.00;102915.88;4992359;28;20023;-62
2022/12/01 05:25:52;;;;;;;103.38;34.75;;;;;;;3.92;100.00;102916.06;4973896;28;20518;-63
2022/12/01 05:28:18;;;;;;;106.70;34.60;;;;;;;3.96;100.00;102917.91;4991574;28;20027;-61
2022/12/01 05:30:43;;;;;;;104.10;36.13;;;;;;;4.01;100.00;102925.88;4991695;28;20121;-61
2022/12/01 05:33:09;;;;;;;102.88;36.22;;;;;;;4.02;100.00;102925.91;4990401;28;20125;-60
2022/12/01 05:35:34;;;;;;;104.78;34.85;;;;;;;4.08;100.00;102919.06;4991241;28;20065;-62
2022/12/01 05:37:59;;;;;;;106.32;36.75;;;;;;;4.08;100.00;102903.41;4991404;28;20023;-62
2022/12/01 05:40:25;;;;;;;114.35;36.53;;;;;;;4.00;100.00;102898.88;4991577;28;20026;-60
2022/12/01 05:42:50;;;;;;;113.30;35.90;;;;;;;3.95;100.00;102907.44;4996820;28;20042;-63
2022/12/01 05:45:16;;;;;;;98.68;34.97;;;;;;;3.93;100.00;102915.22;5005938;28;20029;-63
2022/12/01 05:47:41;;;;;;;106.53;35.53;;;;;;;3.83;100.00;102911.47;4990500;28;20033;-61
2022/12/01 05:50:07;;;;;;;96.93;33.22;;;;;;;3.74;100.00;102914.72;4990593;28;20382;-63
2022/12/01 05:52:35;;;;;;;134.63;40.17;;;;;;;3.73;100.00;102922.50;4990554;28;20353;-62
2022/12/01 05:55:05;;;;;;;132.57;38.58;;;;;;;3.75;100.00;102921.69;5001921;28;20029;-62
2022/12/01 05:57:31;;;;;;;116.28;36.55;;;;;;;3.83;100.00;102915.81;5010837;28;20543;-60
2022/12/01 05:59:56;;;;;;;112.82;36.60;;;;;;;3.84;100.00;102922.78;5009681;28;20095;-63
2022/12/01 06:02:22;;;;;;;133.95;40.00;;;;;;;3.88;100.00;102929.84;5008180;28;20449;-63
2022/12/01 06:04:47;;;;;;;139.52;41.30;;;;;;;3.92;100.00;102923.91;5010023;28;20115;-61
2022/12/01 06:07:13;;;;;;;144.98;42.53;;;;;;;3.97;100.00;102929.25;5008229;28;20443;-62
2022/12/01 06:09:38;;;;;;;141.50;42.33;;;;;;;4.07;100.00;102920.81;4991763;28;20038;-62
2022/12/01 06:12:03;;;;;;;149.00;41.88;;;;;;;4.15;100.00;102923.63;5004552;28;20045;-62
2022/12/01 06:14:29;;;;;;;152.15;41.75;;;;;;;4.18;100.00;102934.13;4989924;28;20046;-59
2022/12/01 06:16:54;;;;;;;144.77;40.83;;;;;;;4.22;100.00;102933.41;4989710;28;20629;-62
2022/12/01 06:19:19;;;;;;;134.02;40.30;;;;;;;4.24;100.00;102929.09;4989928;28;20034;-62
2022/12/01 06:21:45;;;;;;;166.70;44.15;;;;;;;4.28;100.00;102925.69;4973103;28;20094;-60
2022/12/01 06:24:10;;;;;;;132.50;39.92;;;;;;;4.38;100.00;102931.16;4990299;28;20026;-61
2022/12/01 06:26:35;;;;;;;141.43;41.30;;;;;;;4.38;100.00;102928.56;4990452;28;20038;-61
2022/12/01 06:29:01;;;;;;;141.48;41.60;;;;;;;4.40;100.00;102927.75;4990341;28;20024;-65
2022/12/01 06:31:26;;;;;;;129.10;39.92;;;;;;;4.38;100.00;102932.06;4989820;28;20022;-62
2022/12/01 06:33:51;;;;;;;143.05;41.75;;;;;;;4.43;100.00;102933.06;4989321;28;20385;-60
2022/12/01 06:36:17;;;;;;;126.18;39.33;;;;;;;4.39;100.00;102930.31;4989934;28;20361;-60
2022/12/01 06:38:43;;;;;;;135.65;38.83;;;;;;;4.39;100.00;102935.53;4989712;28;20101;-61
2022/12/01 06:41:08;;;;;;;132.18;38.95;;;;;;;4.36;100.00;102935.50;4989715;28;20564;-62
2022/12/01 06:43:37;;;;;;;129.02;40.08;;;;;;;4.36;100.00;102944.19;4989976;28;20487;-61
2022/12/01 06:46:05;;;;;;;137.67;40.23;;;;;;;4.35;100.00;102946.75;4989011;28;20042;-64
2022/12/01 06:48:31;;;;;;;149.27;41.55;;;;;;;4.35;100.00;102946.75;4989826;28;20477;-61
2022/12/01 06:50:57;;;;;;;153.90;42.60;;;;;;;4.35;100.00;102941.53;4990624;28;20018;-64
2022/12/01 06:53:23;;;;;;;154.93;42.67;;;;;;;4.36;100.00;102948.53;4990281;28;20026;-61
2022/12/01 06:55:48;;;;;;;146.70;42.65;;;;;;;4.48;100.00;102943.63;4989268;28;20034;-63
2022/12/01 06:58:14;;;;;;;160.52;42.40;;;;;;;4.54;100.00;102949.00;4989381;28;20011;-61
2022/12/01 07:00:39;;;;;;;151.35;42.65;;;;;;;4.60;100.00;102947.41;4989362;28;20035;-60
2022/12/01 07:03:04;;;;;;;134.13;41.25;;;;;;;4.51;100.00;102953.25;4988041;28;20037;-64
2022/12/01 07:05:30;;;;;;;141.70;40.78;;;;;;;4.42;100.00;102948.66;4989032;28;20026;-61
2022/12/01 07:07:55;;;;;;;139.25;41.15;;;;;;;4.41;100.00;102952.13;4989736;28;20100;-60
2022/12/01 07:10:20;;;;;;;123.95;39.83;;;;;;;4.29;100.00;102943.16;4979226;28;20034;-62
2022/12/01 07:12:46;;;;;;;114.28;38.42;;;;;;;4.21;100.00;102955.09;4981291;28;20481;-62
2022/12/01 07:15:11;;;;;;;114.22;35.80;;;;;;;4.10;100.00;102953.94;4984277;28;20763;-65
2022/12/01 07:17:36;;;;;;;103.25;34.75;;;;;;;4.04;100.00;102957.25;4989169;28;20033;-63
2022/12/01 07:20:03;;;;;;;106.88;34.25;;;;;;;4.01;100.00;102958.03;4988747;28;20022;-62
2022/12/01 07:22:28;;;;;;;108.22;36.03;;;;;;;3.98;100.00;102960.59;4973075;28;20266;-63
2022/12/01 07:24:53;;;;;;;108.85;36.72;;;;;;;3.99;100.00;102959.75;4989141;28;20576;-61
2022/12/01 07:27:19;;;;;;;118.43;38.22;;;;;;;4.06;100.00;102970.34;4987748;28;20188;-64
2022/12/01 07:29:44;;;;;;;122.97;39.60;;;;;;;4.11;100.00;102966.13;4988441;28;20026;-63
2022/12/01 07:32:09;;;;;;;126.78;40.67;;;;;;;4.20;100.00;102971.59;4986909;28;20034;-59
2022/12/01 07:34:35;;;;;;;118.35;39.55;;;;;;;4.27;100.00;102970.03;4989265;28;20349;-62
2022/12/01 07:37:00;;;;;;;122.60;39.20;;;;;;;4.37;100.00;102976.41;4988031;28;20100;-62
2022/12/01 07:39:26;;;;;;;142.80;42.38;;;;;;;4.45;100.00;102972.25;4987938;28;20536;-62
2022/12/01 07:41:51;;;;;;;167.70;45.55;;;;;;;4.60;100.00;102979.59;4987949;28;20429;-61
2022/12/01 07:44:16;;;;;;;155.20;43.08;;;;;;;4.65;100.00;102977.13;4988234;28;20042;-61
2022/12/01 07:46:42;;;;;;;158.65;46.15;;;;;;;4.78;100.00;102983.53;4987508;28;20531;-61
2022/12/01 07:49:09;;;;;;;147.52;43.28;;;;;;;4.82;100.00;102979.28;4987959;28;20113;-61
2022/12/01 07:51:34;;;;;;;162.57;45.95;;;;;;;4.86;100.00;102981.09;4987865;28;20477;-63
2022/12/01 07:54:01;;;;;;;162.98;45.63;;;;;;;4.97;100.00;102979.63;4987336;28;20037;-62
2022/12/01 07:56:27;;;;;;;168.63;46.63;;;;;;;5.09;100.00;102984.25;4988345;28;20022;-64
2022/12/01 07:58:53;;;;;;;166.25;46.95;;;;;;;5.18;100.00;102997.56;4988163;28;20033;-63
2022/12/01 08:01:20;;;;;;;169.82;47.60;;;;;;;5.17;100.00;102994.91;4986962;28;20027;-66
2022/12/01 08:03:56;;;;;;;169.27;47.25;;;;;;;5.18;100.00;102997.56;4989819;28;20054;-61
2022/12/01 08:06:23;;;;;;;171.38;45.20;;;;;;;5.31;100.00;103001.38;4987927;28;20030;-60
2022/12/01 08:08:48;;;;;;;168.82;45.88;;;;;;;5.35;100.00;103007.53;4986734;28;20041;-62
2022/12/01 08:11:16;;;;;;;146.32;44.72;;;;;;;5.37;100.00;103010.19;4987762;28;20018;-61
2022/12/01 08:13:41;;;;;;;157.93;47.13;;;;;;;5.35;100.00;103006.63;4988108;28;20488;-61
2022/12/01 08:16:10;;;;;;;145.52;43.30;;;;;;;5.42;100.00;103011.19;4987032;28;20053;-60
2022/12/01 08:18:36;;;;;;;;;;;;;;;5.46;100.00;103002.56;4988699;28;20073;-59
2022/12/01 08:21:02;;;;;;;140.75;42.72;;;;;;;5.34;100.00;103000.53;4987767;28;19914;-61
2022/12/01 08:23:27;;;;;;;140.70;44.47;;;;;;;5.38;100.00;103006.69;4987058;28;20015;-59
2022/12/01 08:25:53;;;;;;;144.45;43.47;;;;;;;5.42;100.00;103012.03;4983522;28;20045;-62
2022/12/01 08:28:19;;;;;;;147.68;43.47;;;;;;;5.55;100.00;103005.38;4987035;28;20864;-62
2022/12/01 08:30:44;;;;;;;154.32;44.88;;;;;;;5.62;100.00;103005.50;4987468;28;20485;-62
2022/12/01 08:33:10;;;;;;;145.48;45.10;;;;;;;5.63;100.00;103012.50;4984920;28;20134;-61
2022/12/01 08:35:36;;;;;;;150.73;45.13;;;;;;;5.61;100.00;103003.72;4982720;28;20026;-61
2022/12/01 08:38:01;;;;;;;145.82;44.20;;;;;;;5.65;100.00;103005.56;4987990;28;20026;-62
2022/12/01 08:40:26;;;;;;;138.02;43.35;;;;;;;5.63;100.00;103013.38;4988869;28;20022;-62
2022/12/01 08:42:52;;;;;;;140.38;44.30;;;;;;;5.64;100.00;103017.78;4988317;28;20033;-63
2022/12/01 08:45:17;;;;;;;141.50;42.55;;;;;;;5.87;100.00;103011.28;4988611;28;20038;-61
2022/12/01 08:47:43;;;;;;;138.20;43.15;;;;;;;5.81;100.00;103018.13;4987893;28;20038;-62
2022/12/01 08:50:09;;;;;;;135.27;41.38;;;;;;;5.93;100.00;103016.63;4988433;28;20033;-60
2022/12/01 08:52:35;;;;;;;133.70;43.35;;;;;;;5.96;100.00;103015.81;4988268;28;20366;-60
2022/12/01 08:55:02;;;;;;;131.20;43.80;;;;;;;5.92;100.00;103012.22;4987915;28;20444;-60
2022/12/01 08:57:30;;;;;;;123.18;43.15;;;;;;;5.96;100.00;103015.81;4957014;28;20035;-60
2022/12/01 08:59:56;;;;;;;119.40;41.67;;;;;;;5.98;100.00;103014.09;4986633;28;20117;-65
2022/12/01 09:02:21;;;;;;;127.85;42.83;;;;;;;5.94;100.00;103008.78;4986345;28;20106;-61
2022/12/01 09:04:48;;;;;;;119.65;42.92;;;;;;;5.94;100.00;103007.91;4987678;28;20045;-61
2022/12/01 09:07:15;;;;;;;114.93;43.03;;;;;;;6.06;100.00;103007.31;4999443;28;20092;-65
2022/12/01 09:09:41;;;;;;;115.10;41.70;;;;;;;5.98;100.00;103003.63;4999445;28;20023;-62
2022/12/01 09:12:07;;;;;;;119.18;42.47;;;;;;;6.14;100.00;103002.25;4987556;28;20069;-61
2022/12/01 09:14:36;;;;;;;118.55;41.72;;;;;;;6.36;100.00;103003.53;4984914;28;20038;-61
2022/12/01 09:17:01;;;;;;;109.38;41.55;;;;;;;6.42;100.00;103011.47;4984098;28;20022;-61
2022/12/01 09:19:27;;;;;;;110.85;39.42;;;;;;;6.47;100.00;103010.72;4988400;28;20026;-62
2022/12/01 09:21:52;;;;;;;103.35;39.25;;;;;;;6.36;100.00;103008.78;4979082;28;20026;-61
2022/12/01 09:24:18;;;;;;;100.53;39.78;;;;;;;6.39;100.00;103015.81;4972749;28;20473;-61
2022/12/01 09:26:43;;;;;;;114.85;41.88;;;;;;;6.58;100.00;103009.16;4969892;28;20026;-60
2022/12/01 09:29:13;;;;;;;110.60;40.95;;;;;;;6.62;100.00;103017.97;4962970;28;20555;-60
2022/12/01 09:31:39;;;;;;;110.38;39.65;;;;;;;6.57;100.00;103021.38;4971108;28;20440;-61
2022/12/01 09:34:07;;;;;;;108.35;40.17;;;;;;;6.60;100.00;103019.66;4982337;28;20030;-62
2022/12/01 09:36:34;;;;;;;104.32;41.08;;;;;;;6.56;100.00;103019.59;4974089;28;20030;-61
2022/12/01 09:39:00;;;;;;;103.47;39.50;;;;;;;6.60;100.00;103025.78;4978008;28;20994;-61
2022/12/01 09:41:38;;;;;;;94.60;40.75;;;;;;;6.85;100.00;103018.34;4991715;28;20026;-60
2022/12/01 09:44:19;;;;;;;103.13;39.47;;;;;;;6.81;100.00;103014.78;4990581;28;20030;-60
2022/12/01 09:46:59;;;;;;;101.20;39.47;;;;;;;6.61;100.00;103016.19;4990627;28;20026;-62
2022/12/01 09:49:38;;;;;;;101.75;40.17;;;;;;;6.69;100.00;103009.34;4991717;28;20030;-62
2022/12/01 09:52:03;;;;;;;;;;;;;;;6.81;100.00;103004.31;4991669;28;20372;-61
2022/12/01 09:54:29;;;;;;;84.18;35.53;;;;;;;6.91;100.00;103002.75;4991455;28;19913;-60
2022/12/01 09:56:55;;;;;;;89.45;36.70;;;;;;;6.84;100.00;103000.88;4991158;28;20086;-62
2022/12/01 09:59:22;;;;;;;85.50;36.58;;;;;;;6.67;100.00;102997.97;4973326;28;20026;-62
2022/12/01 10:01:54;;;;;;;90.30;38.22;;;;;;;6.43;100.00;102996.66;4973199;28;20014;-61
2022/12/01 10:04:43;;;;;;;89.43;38.25;;;;;;;6.34;100.00;102997.38;4973004;28;20719;-63
2022/12/01 10:07:22;;;;;;;93.20;37.28;;;;;;;6.50;100.00;102997.66;4993005;28;20105;-60
2022/12/01 10:09:53;;;;;;;;;;;;;;;6.50;100.00;102998.53;5011152;28;20079;-62
2022/12/01 10:12:22;;;;;;;89.25;35.78;;;;;;;6.50;100.00;103002.91;4975795;28;20067;-62
2022/12/01 10:14:47;;;;;;;;;;;;;;;6.46;100.00;102996.72;5010844;28;20498;-61
2022/12/01 10:17:13;;;;;;;93.95;35.40;;;;;;;6.34;100.00;102997.38;4992102;28;19913;-60
2022/12/01 10:19:50;;;;;;;91.35;37.58;;;;;;;6.40;100.00;102996.59;4996056;28;20137;-62
2022/12/01 10:22:40;;;;;;;92.45;36.38;;;;;;;6.57;100.00;102983.81;4990574;28;20022;-61
2022/12/01 10:25:24;;;;;;;99.05;39.65;;;;;;;6.65;100.00;102994.44;4989182;28;20030;-62
2022/12/01 10:28:11;;;;;;;95.00;37.97;;;;;;;6.62;100.00;102997.00;4972052;28;20038;-60
2022/12/01 10:30:46;;;;;;;98.95;38.35;;;;;;;6.59;100.00;102991.72;4989377;28;20038;-62
2022/12/01 10:33:26;;;;;;;93.78;38.95;;;;;;;6.79;100.00;102992.94;4972295;28;20077;-61
2022/12/01 10:35:51;;;;;;;92.97;38.22;;;;;;;6.82;100.00;102998.22;4972866;28;20061;-62
2022/12/01 10:38:24;;;;;;;95.57;38.22;;;;;;;6.83;100.00;102999.97;4972561;28;20509;-60
2022/12/01 10:40:50;;;;;;;86.97;37.58;;;;;;;6.92;100.00;102995.72;4972654;28;20113;-61
2022/12/01 10:43:15;;;;;;;88.60;36.35;;;;;;;6.86;100.00;102993.03;4986283;28;20613;-61
2022/12/01 10:45:43;;;;;;;91.20;37.58;;;;;;;6.67;100.00;102984.84;5003811;28;20045;-61
2022/12/01 10:48:19;;;;;;;83.75;35.60;;;;;;;6.94;100.00;102979.19;5007105;28;20026;-61
2022/12/01 10:50:51;;;;;;;87.28;35.97;;;;;;;7.00;100.00;102986.28;5009347;28;20036;-62
2022/12/01 10:53:22;;;;;;;82.18;34.38;;;;;;;6.73;100.00;102987.59;4995169;28;20073;-61
2022/12/01 10:55:50;;;;;;;74.60;33.75;;;;;;;6.73;100.00;102987.59;4974426;28;20541;-60
2022/12/01 10:58:16;;;;;;;77.72;32.95;;;;;;;6.67;100.00;102984.84;4988352;28;20030;-62
2022/12/01 11:00:43;;;;;;;82.15;35.97;;;;;;;6.79;100.00;102982.44;4968001;28;20080;-60
2022/12/01 11:03:19;;;;;;;74.32;33.08;;;;;;;6.85;100.00;102989.53;4971576;28;20052;-60
2022/12/01 11:05:51;;;;;;;78.85;34.50;;;;;;;6.96;100.00;102981.84;4971356;28;20037;-59
2022/12/01 11:08:36;;;;;;;77.07;35.10;;;;;;;6.95;100.00;102987.94;4968927;28;20089;-60
2022/12/01 11:11:02;;;;;;;72.63;31.55;;;;;;;7.19;100.00;102969.06;4966818;28;20027;-60
2022/12/01 11:13:30;;;;;;;76.70;33.58;;;;;;;7.24;100.00;102979.63;4968370;28;20496;-61